Terminal Aerodrome Forecast
Issued by NWS

Current Version | Previous Version | Graphics & Text | Print | Product List | Glossary On
Versions: 1 2 3 4 5 6 7 8 9 10 11 12 13 14 15 16 17 18 19 20 21 22 23 24
000
FTUS41 KRLX 150500
TAFCKB
TAF
KCKB 150534Z 1506/1606 19003KT 4SM BR OVC008
     FM150700 00000KT 2SM BR OVC005
     FM151400 VRB03KT 3SM BR OVC007
     FM151500 VRB03KT P6SM OVC015
     FM151900 00000KT P6SM SCT022 SCT200=

USA.gov is the U.S. government's official web portal to all federal, state and local government web resources and services.